Time;durP1;ratioP1;P1;durP2;ratioP2;P2;SDS_P1;SDS_P2;PMS_P1;PMS_P2;Temp;Humidity;BMP_temperature;BMP_pressure;BME280_temperature;BME280_humidity;BME280_pressure;Samples;Min_cycle;Max_cycle;Signal;HPM_P1;HPM_P2
2023/03/24 00:01:15;;;;;;;29.57;16.70;;;9.50;99.90;;;9.52;64.03;95060.13;5001906;28;20469;-56
2023/03/24 00:03:44;;;;;;;25.53;15.50;;;9.50;99.90;;;9.50;64.18;95057.63;5012995;28;20476;-55
2023/03/24 00:06:12;;;;;;;33.00;14.93;;;9.50;99.90;;;9.48;63.97;95063.97;5009119;28;20461;-53
2023/03/24 00:08:40;;;;;;;25.70;15.83;;;9.50;99.90;;;9.46;64.11;95065.91;5001374;28;20477;-56
2023/03/24 00:11:10;;;;;;;28.70;16.20;;;9.40;99.90;;;9.44;64.58;95066.03;5008378;28;20514;-56
2023/03/24 00:13:38;;;;;;;24.10;14.77;;;9.40;99.90;;;9.42;64.22;95059.22;5009347;28;20523;-54
2023/03/24 00:16:06;;;;;;;26.33;13.83;;;9.40;99.90;;;9.37;63.96;95067.47;4996566;28;20466;-55
2023/03/24 00:18:35;;;;;;;39.93;15.70;;;9.40;99.90;;;9.32;63.91;95065.25;5003493;28;20481;-55
2023/03/24 00:21:03;;;;;;;43.13;12.70;;;9.30;99.90;;;9.28;63.62;95071.72;5013794;28;20515;-54
2023/03/24 00:23:31;;;;;;;29.70;14.00;;;9.30;99.90;;;9.24;63.43;95065.06;4999011;28;20534;-53
2023/03/24 00:26:02;;;;;;;29.10;14.97;;;9.30;99.90;;;9.20;63.42;95060.19;4999728;28;20451;-53
2023/03/24 00:28:32;;;;;;;27.70;13.27;;;9.20;99.90;;;9.16;63.47;95070.13;5017926;28;20477;-54
2023/03/24 00:31:00;;;;;;;30.13;15.47;;;9.10;99.90;;;9.11;63.91;95067.03;4999055;28;20454;-55
2023/03/24 00:33:31;;;;;;;27.20;15.17;;;9.10;99.90;;;9.06;63.53;95056.06;5000478;28;20474;-55
2023/03/24 00:35:59;;;;;;;27.90;14.87;;;9.00;99.90;;;9.01;63.73;95055.63;5011556;28;20450;-53
2023/03/24 00:38:26;;;;;;;22.13;15.10;;;9.00;99.90;;;8.96;63.61;95053.38;4999814;28;20481;-54
2023/03/24 00:40:54;;;;;;;27.43;15.80;;;9.00;99.90;;;8.93;64.02;95056.25;5003634;28;20458;-53
2023/03/24 00:43:21;;;;;;;23.73;14.17;;;8.90;99.90;;;8.90;64.06;95048.63;5009418;28;20477;-53
2023/03/24 00:45:51;;;;;;;29.10;16.57;;;8.90;99.90;;;8.88;63.89;95055.81;5008067;28;20473;-57
2023/03/24 00:48:19;;;;;;;25.03;14.13;;;8.90;99.90;;;8.85;64.06;95050.81;4996282;28;20555;-54
2023/03/24 00:50:49;;;;;;;28.53;15.03;;;8.90;99.90;;;8.82;63.97;95049.25;5007782;28;20488;-53
2023/03/24 00:53:16;;;;;;;36.03;15.23;;;8.80;99.90;;;8.79;64.40;95052.94;5012607;28;20476;-55
2023/03/24 00:55:44;;;;;;;26.63;14.10;;;8.80;99.90;;;8.78;64.09;95055.69;5005953;28;20473;-54
2023/03/24 00:58:16;;;;;;;22.30;14.80;;;8.80;99.90;;;8.76;64.54;95058.44;5004251;28;20579;-56
2023/03/24 01:00:44;;;;;;;24.90;14.57;;;8.80;99.90;;;8.76;64.34;95057.63;5011353;28;20457;-57
2023/03/24 01:03:13;;;;;;;28.03;15.40;;;8.80;99.90;;;8.75;64.02;95055.94;5009159;28;20501;-56
2023/03/24 01:05:41;;;;;;;24.50;15.20;;;8.80;99.90;;;8.73;64.13;95057.88;5000520;28;20928;-55
2023/03/24 01:08:09;;;;;;;26.07;14.40;;;8.70;99.90;;;8.72;64.38;95056.19;5010384;28;20646;-57
2023/03/24 01:10:48;;;;;;;19.70;13.67;;;8.70;99.90;;;8.69;64.38;95045.94;5006835;28;20970;-53
2023/03/24 01:13:16;;;;;;;22.63;14.57;;;8.70;99.90;;;8.67;64.89;95050.50;4998946;28;20903;-54
2023/03/24 01:15:44;;;;;;;21.10;13.90;;;8.70;99.90;;;8.65;64.65;95047.16;5001911;28;20831;-54
2023/03/24 01:18:13;;;;;;;22.80;14.10;;;8.70;99.90;;;8.64;64.66;95046.31;5002839;28;20874;-55
2023/03/24 01:20:44;;;;;;;22.00;12.97;;;8.70;99.90;;;8.64;64.97;95048.13;4997852;28;20467;-55
2023/03/24 01:23:12;;;;;;;22.60;14.80;;;8.60;99.90;;;8.63;64.79;95041.19;5010039;28;20480;-55
2023/03/24 01:25:44;;;;;;;26.93;14.37;;;8.60;99.90;;;8.61;65.16;95038.69;5004536;28;21309;-54
2023/03/24 01:28:11;;;;;;;23.70;14.00;;;8.60;99.90;;;8.60;65.35;95043.13;4998453;28;20482;-57
2023/03/24 01:30:39;;;;;;;21.73;12.43;;;8.60;99.90;;;8.58;64.74;95039.81;5005434;28;20821;-56
2023/03/24 01:33:06;;;;;;;33.13;14.50;;;8.60;99.90;;;8.57;65.38;95032.88;5013044;28;21100;-55
2023/03/24 01:35:35;;;;;;;23.20;13.50;;;8.60;99.90;;;8.56;65.19;95025.97;5004018;28;20468;-55
2023/03/24 01:38:06;;;;;;;21.30;14.27;;;8.60;99.90;;;8.55;65.13;95029.56;5007711;28;21029;-56
2023/03/24 01:40:35;;;;;;;22.73;14.60;;;8.60;99.90;;;8.54;65.19;95035.75;5015715;28;20463;-56
2023/03/24 01:43:02;;;;;;;28.03;15.07;;;8.50;99.90;;;8.52;65.61;95032.44;5009106;28;20561;-55
2023/03/24 01:46:01;;;;;;;33.37;15.27;;;8.50;99.90;;;8.52;65.67;95031.56;5005634;28;20473;-55
2023/03/24 01:48:31;;;;;;;24.33;13.37;;;8.60;99.90;;;8.50;65.69;95036.94;4992257;28;20485;-54
2023/03/24 01:51:02;;;;;;;31.70;14.47;;;8.50;99.90;;;8.49;65.74;95039.69;5013832;28;20473;-55
2023/03/24 01:53:30;;;;;;;23.83;14.60;;;8.50;99.90;;;8.48;65.68;95038.88;4996168;28;20492;-55
2023/03/24 01:55:58;;;;;;;23.63;13.77;;;8.50;99.90;;;8.49;65.47;95035.28;5009394;28;20573;-54
2023/03/24 01:58:26;;;;;;;19.33;13.23;;;8.50;99.90;;;8.48;65.47;95033.63;5008095;28;20634;-55
2023/03/24 02:00:53;;;;;;;17.20;13.03;;;8.50;99.90;;;8.47;65.62;95031.94;4994346;28;20468;-55
2023/03/24 02:03:22;;;;;;;21.73;13.50;;;8.50;99.90;;;8.46;65.87;95038.16;5011419;28;20859;-55
2023/03/24 02:05:52;;;;;;;24.73;15.20;;;8.50;99.90;;;8.45;65.98;95038.28;5011859;28;20472;-55
2023/03/24 02:08:23;;;;;;;23.20;14.80;;;8.50;99.90;;;8.44;66.08;95042.66;5011105;28;20583;-56
2023/03/24 02:10:51;;;;;;;23.80;14.60;;;8.40;99.90;;;8.43;65.82;95036.59;5007376;28;20516;-53
2023/03/24 02:13:18;;;;;;;22.80;14.03;;;8.40;99.90;;;8.43;65.58;95041.00;5013391;28;20505;-55
2023/03/24 02:15:52;;;;;;;21.03;14.23;;;8.40;99.90;;;8.43;66.10;95035.75;4995538;28;20457;-55
2023/03/24 02:18:26;;;;;;;20.17;14.20;;;8.40;99.90;;;8.40;65.89;95047.31;5006605;28;20554;-55
2023/03/24 02:21:40;;;;;;;22.97;14.90;;;8.40;99.90;;;8.38;65.90;95046.59;5019198;28;21459;-53
2023/03/24 02:25:09;;;;;;;23.00;14.70;;;8.40;99.90;;;8.35;66.44;95048.63;4985777;28;20456;-54
2023/03/24 02:27:56;;;;;;;29.93;13.87;;;8.40;99.90;;;8.32;66.17;95035.75;5009454;28;20535;-56
2023/03/24 02:31:32;;;;;;;27.03;14.70;;;8.30;99.90;;;8.30;66.54;95037.69;5012661;28;20454;-55
2023/03/24 02:34:35;;;;;;;21.93;14.20;;;8.30;99.90;;;8.28;65.98;95042.22;4892394;29;20537;-54
2023/03/24 02:37:33;;;;;;;32.07;16.17;;;8.30;99.90;;;8.24;66.43;95037.22;4997128;28;21078;-56
2023/03/24 02:40:30;;;;;;;21.03;14.10;;;8.30;99.90;;;8.23;66.26;95025.06;4996385;28;20486;-56
2023/03/24 02:43:17;;;;;;;27.20;16.03;;;8.30;99.90;;;8.24;66.65;95029.34;4989448;28;20481;-53
2023/03/24 02:45:52;;;;;;;23.70;14.10;;;8.20;99.90;;;8.22;66.19;95012.91;5000804;28;21076;-54
2023/03/24 02:48:23;;;;;;;25.97;14.87;;;8.20;99.90;;;8.22;65.96;95010.28;4996018;28;21022;-56
2023/03/24 02:50:54;;;;;;;28.47;16.27;;;8.20;99.90;;;8.24;66.06;95007.53;5005389;28;20470;-56
2023/03/24 02:53:27;;;;;;;23.97;14.97;;;8.20;99.90;;;8.26;65.96;95008.28;5006778;28;20481;-52
2023/03/24 02:55:58;;;;;;;22.57;14.50;;;8.30;99.90;;;8.28;66.65;95011.59;5007258;28;20469;-55
2023/03/24 02:58:31;;;;;;;21.53;13.10;;;8.30;99.90;;;8.29;66.67;95007.16;5001075;28;20504;-54
2023/03/24 03:01:02;;;;;;;20.23;14.07;;;8.30;99.90;;;8.31;66.81;95005.28;5003321;28;21100;-56
2023/03/24 03:03:33;;;;;;;17.73;12.77;;;8.30;99.90;;;8.32;65.99;95012.16;4998509;28;20474;-56
2023/03/24 03:06:04;;;;;;;20.67;13.30;;;8.30;99.90;;;8.32;65.88;95013.03;5005993;28;20540;-55
2023/03/24 03:08:32;;;;;;;21.13;13.97;;;8.30;99.90;;;8.33;66.26;95009.44;5023222;28;20472;-57
2023/03/24 03:11:02;;;;;;;23.17;13.57;;;8.30;99.90;;;8.34;65.91;95007.66;5002856;22;20558;-54
2023/03/24 03:13:32;;;;;;;22.40;14.10;;;8.30;99.90;;;8.36;66.45;95008.34;4987274;28;20497;-55
2023/03/24 03:16:04;;;;;;;25.20;14.47;;;8.40;99.90;;;8.36;66.42;95003.13;4996107;28;20538;-53
2023/03/24 03:18:33;;;;;;;21.70;14.50;;;8.40;99.90;;;8.37;66.03;95010.84;4996154;28;20498;-53
2023/03/24 03:21:05;;;;;;;23.50;14.10;;;8.40;99.90;;;8.38;66.40;95002.06;4988582;28;20967;-55
2023/03/24 03:23:35;;;;;;;19.90;14.20;;;8.40;99.90;;;8.40;67.00;95007.16;4990924;28;20493;-56
2023/03/24 03:26:06;;;;;;;17.37;12.57;;;8.40;99.90;;;8.40;66.17;95009.78;4989653;28;20489;-55
2023/03/24 03:28:35;;;;;;;26.43;15.37;;;8.40;99.90;;;8.42;66.46;95016.56;4987449;28;20471;-54
2023/03/24 03:31:05;;;;;;;24.10;14.27;;;8.40;99.90;;;8.38;66.33;95011.69;4988224;28;20538;-57
2023/03/24 03:33:36;;;;;;;23.33;15.63;;;8.40;99.90;;;8.34;66.16;95011.09;4996388;28;20489;-53
2023/03/24 03:36:07;;;;;;;28.83;14.07;;;8.30;99.90;;;8.33;66.07;95005.97;4984168;28;20472;-54
2023/03/24 03:38:41;;;;;;;21.80;13.80;;;8.40;99.90;;;8.33;66.06;95003.38;4991598;28;20504;-56
2023/03/24 03:41:10;;;;;;;21.20;14.13;;;8.30;99.90;;;8.35;66.73;94998.81;4992093;28;20462;-53
2023/03/24 03:43:38;;;;;;;21.30;13.57;;;8.30;99.90;;;8.36;66.86;95005.75;4990485;28;20504;-54
2023/03/24 03:46:06;;;;;;;22.50;14.97;;;8.30;99.90;;;8.36;66.87;95005.75;4984050;28;20454;-54
2023/03/24 03:48:33;;;;;;;22.03;13.90;;;8.40;99.90;;;8.36;66.81;95003.94;4997012;28;20478;-54
2023/03/24 03:51:01;;;;;;;27.00;15.10;;;8.40;99.90;;;8.36;66.92;95016.22;4990676;28;20473;-57
2023/03/24 03:53:32;;;;;;;32.50;14.23;;;8.40;99.90;;;8.36;66.47;95018.84;4987333;28;20486;-53
2023/03/24 03:55:59;;;;;;;28.13;14.63;;;8.40;99.90;;;8.35;66.49;95025.03;4990374;28;20805;-57
2023/03/24 03:58:28;;;;;;;23.83;14.90;;;8.40;99.90;;;8.31;66.65;95018.38;4987112;28;20501;-54
2023/03/24 04:00:55;;;;;;;30.83;16.23;;;8.30;99.90;;;8.27;66.18;95017.78;4983406;28;20459;-56
2023/03/24 04:03:43;;;;;;;25.30;16.20;;;8.30;99.90;;;8.24;66.14;95024.13;4979607;28;20565;-54
2023/03/24 04:06:14;;;;;;;25.73;15.70;;;8.30;99.90;;;8.21;66.14;95019.13;4987141;28;20963;-56
2023/03/24 04:08:47;;;;;;;22.27;14.10;;;8.20;99.90;;;8.19;66.15;95028.03;4988197;28;20477;-55
2023/03/24 04:11:49;;;;;;;22.17;15.83;;;8.20;99.90;;;8.17;66.26;95015.06;4983004;28;20564;-54
2023/03/24 04:14:41;;;;;;;30.83;15.23;;;8.20;99.90;;;8.15;66.42;95022.22;4975146;28;20458;-55
2023/03/24 04:17:14;;;;;;;26.73;15.77;;;8.20;99.90;;;8.14;66.34;95023.16;4978356;28;20475;-54
2023/03/24 04:19:54;;;;;;;27.40;16.53;;;8.20;99.90;;;8.12;66.10;95014.59;4987472;28;21002;-56
2023/03/24 04:22:27;;;;;;;36.80;17.13;;;8.10;99.90;;;8.09;66.17;95022.72;4987252;28;20671;-55
2023/03/24 04:24:56;;;;;;;32.50;16.93;;;8.10;99.90;;;8.04;65.59;95019.59;4985231;28;20454;-56
2023/03/24 04:27:29;;;;;;;36.13;16.23;;;8.10;99.90;;;7.98;66.13;95018.31;4985056;28;21056;-56
2023/03/24 04:30:06;;;;;;;27.53;16.60;;;8.00;99.90;;;7.96;66.15;95024.59;4983306;28;20838;-54
2023/03/24 04:32:40;;;;;;;29.07;16.10;;;8.00;99.90;;;7.92;65.94;95020.56;4985195;28;20486;-56
2023/03/24 04:35:09;;;;;;;27.07;14.10;;;8.00;99.90;;;7.90;66.59;95023.31;4982070;28;20462;-54
2023/03/24 04:37:37;;;;;;;29.47;18.57;;;7.90;99.90;;;7.87;66.24;95029.63;4990293;28;20548;-55
2023/03/24 04:40:08;;;;;;;42.77;29.67;;;7.90;99.90;;;7.85;65.99;95028.91;4989618;28;20847;-56
2023/03/24 04:42:37;;;;;;;38.33;28.37;;;7.90;99.90;;;7.85;66.63;95028.91;4988296;28;20481;-54
2023/03/24 04:45:07;;;;;;;41.90;28.90;;;7.90;99.90;;;7.84;66.17;95037.72;4988012;28;20458;-57
2023/03/24 04:47:38;;;;;;;26.70;15.63;;;7.90;99.90;;;7.83;65.86;95041.28;4995474;28;20488;-56
2023/03/24 04:50:09;;;;;;;28.20;15.20;;;7.90;99.90;;;7.82;66.51;95044.88;4988961;28;21010;-53
2023/03/24 04:52:37;;;;;;;26.53;15.50;;;7.90;99.90;;;7.84;66.56;95050.81;4999195;28;20477;-54
2023/03/24 04:55:12;;;;;;;33.07;15.80;;;7.90;99.90;;;7.88;66.50;95051.41;4997341;28;20534;-55
2023/03/24 04:57:39;;;;;;;25.13;14.77;;;7.90;99.90;;;7.91;66.25;95059.00;4989513;28;20922;-55
2023/03/24 05:00:11;;;;;;;28.03;14.70;;;7.90;99.90;;;7.95;66.38;95063.06;4999914;28;20972;-54
2023/03/24 05:02:39;;;;;;;30.13;16.77;;;7.90;99.90;;;7.90;66.58;95052.13;4997625;28;20471;-55
2023/03/24 05:05:08;;;;;;;28.60;15.93;;;8.00;99.90;;;7.98;66.43;95061.97;4988025;28;20809;-56
2023/03/24 05:07:35;;;;;;;31.30;17.37;;;8.00;99.90;;;7.98;66.07;95060.22;4991101;28;20864;-55
2023/03/24 05:10:02;;;;;;;25.77;16.37;;;8.00;99.90;;;8.00;66.60;95062.72;4996039;28;20475;-55
2023/03/24 05:12:29;;;;;;;37.37;16.90;;;8.00;99.90;;;8.05;66.86;95068.41;4992518;28;20917;-54
2023/03/24 05:14:57;;;;;;;28.00;16.63;;;8.00;99.90;;;8.17;66.32;95070.09;4987992;28;20967;-55
2023/03/24 05:17:25;;;;;;;38.93;18.10;;;8.20;99.90;;;8.32;65.89;95069.81;5000188;28;20473;-54
2023/03/24 05:19:52;;;;;;;34.80;20.17;;;8.30;99.90;;;8.47;65.44;95079.13;4985589;28;20907;-54
2023/03/24 05:22:20;;;;;;;37.10;19.70;;;8.50;99.90;;;8.56;65.18;95072.31;4989119;28;20501;-56
2023/03/24 05:24:47;;;;;;;43.20;20.77;;;8.60;99.90;;;8.60;65.62;95084.25;4990574;28;20847;-54
2023/03/24 05:27:14;;;;;;;43.97;21.70;;;8.60;99.90;;;8.63;65.31;95075.28;4994150;28;20474;-55
2023/03/24 05:29:42;;;;;;;35.40;20.00;;;8.70;99.90;;;8.66;65.11;95068.03;4991143;28;20924;-53
2023/03/24 05:32:09;;;;;;;34.93;19.80;;;8.70;99.90;;;8.68;65.06;95066.09;4988904;28;20605;-57
2023/03/24 05:34:38;;;;;;;38.90;22.20;;;8.70;99.90;;;8.72;65.33;95069.31;4990521;28;20466;-53
2023/03/24 05:37:05;;;;;;;36.67;20.63;;;8.70;99.90;;;8.75;65.42;95076.91;4985938;28;20483;-55
2023/03/24 05:39:32;;;;;;;34.83;21.57;;;8.80;99.90;;;8.79;65.50;95075.72;4992423;28;21030;-55
2023/03/24 05:42:00;;;;;;;45.83;19.47;;;8.80;99.90;;;8.83;65.42;95074.53;4993413;28;20486;-56
2023/03/24 05:44:27;;;;;;;41.63;21.73;;;8.80;99.90;;;8.87;65.46;95075.94;4985929;28;20811;-56
2023/03/24 05:46:54;;;;;;;45.63;22.40;;;8.90;99.90;;;8.91;65.32;95079.16;4989297;28;20833;-56
2023/03/24 05:49:21;;;;;;;47.30;22.67;;;8.90;99.90;;;8.96;65.70;95080.44;4988757;28;20469;-55
2023/03/24 05:51:50;;;;;;;40.97;21.17;;;9.00;99.90;;;9.05;65.56;95078.03;4991419;28;20525;-56
2023/03/24 05:54:18;;;;;;;43.50;20.17;;;9.00;99.90;;;9.13;65.60;95080.84;4989507;28;20453;-56
2023/03/24 05:56:45;;;;;;;38.83;20.40;;;9.10;99.90;;;9.26;65.25;95084.13;4991824;28;20478;-56
2023/03/24 05:59:12;;;;;;;51.10;21.50;;;9.20;99.90;;;9.41;65.31;95079.41;4995370;28;20496;-57
2023/03/24 06:01:41;;;;;;;36.80;20.23;;;9.30;99.90;;;9.57;65.19;95083.38;4986579;28;20454;-56
2023/03/24 06:04:08;;;;;;;33.33;21.80;;;9.50;99.90;;;9.75;64.52;95083.63;4998591;28;20465;-56
2023/03/24 06:06:37;;;;;;;57.07;23.30;;;9.60;99.90;;;9.93;64.33;95079.44;4996100;28;20935;-55
2023/03/24 06:09:05;;;;;;;42.83;22.00;;;9.80;99.90;;;10.14;63.92;95078.56;4992398;28;20541;-55
2023/03/24 06:11:33;;;;;;;41.93;22.90;;;10.00;99.90;;;10.34;63.44;95076.88;4995420;28;20826;-56
2023/03/24 06:14:00;;;;;;;49.13;21.57;;;10.20;99.90;;;10.56;62.86;95078.47;5000068;28;21151;-57
2023/03/24 06:16:28;;;;;;;46.57;22.27;;;10.40;99.90;;;10.77;62.71;95071.31;4993696;28;20545;-59
2023/03/24 06:18:55;;;;;;;46.43;23.33;;;10.60;99.90;;;10.98;62.34;95082.69;4995719;28;20493;-56
2023/03/24 06:21:29;;;;;;;33.57;20.37;;;10.80;99.90;;;11.19;61.46;95086.03;4996582;28;20481;-57
2023/03/24 06:23:57;;;;;;;35.73;19.60;;;11.00;99.90;;;11.41;61.33;95086.72;4992020;28;20536;-57
2023/03/24 06:26:29;;;;;;;53.13;20.93;;;11.20;99.50;;;11.62;60.90;95087.41;4988593;28;20455;-56
2023/03/24 06:28:57;;;;;;;56.50;22.67;;;11.40;99.20;;;11.83;60.00;95084.59;5000511;28;20450;-57
2023/03/24 06:31:28;;;;;;;42.77;20.97;;;11.60;98.70;;;12.04;59.90;95086.22;4995179;28;20463;-56
2023/03/24 06:33:55;;;;;;;36.63;22.67;;;11.80;98.50;;;12.27;59.51;95085.88;4985733;28;20447;-54
2023/03/24 06:36:24;;;;;;;36.27;20.50;;;12.10;98.20;;;12.46;58.32;95087.59;4997299;28;20449;-57
2023/03/24 06:38:51;;;;;;;43.47;22.87;;;12.30;97.20;;;12.62;58.51;95081.69;4997472;28;21030;-54
2023/03/24 06:41:19;;;;;;;41.37;19.20;;;12.40;97.20;;;12.82;58.99;95079.78;4990891;28;20450;-54
2023/03/24 06:43:47;;;;;;;45.63;20.77;;;12.60;97.80;;;13.09;59.02;95094.75;4998661;28;21066;-56
2023/03/24 06:46:14;;;;;;;45.87;20.90;;;12.80;97.90;;;13.37;58.56;95092.03;4997251;28;20462;-55
2023/03/24 06:48:42;;;;;;;46.87;20.73;;;13.10;97.70;;;13.66;57.75;95091.78;4990658;28;21011;-55
2023/03/24 06:51:09;;;;;;;35.50;21.33;;;13.40;97.30;;;13.92;57.27;95089.19;4995613;28;20954;-55
2023/03/24 06:53:37;;;;;;;47.70;20.63;;;13.70;96.80;;;14.19;56.67;95086.53;4998525;28;20863;-55
2023/03/24 06:56:06;;;;;;;44.27;20.73;;;13.90;96.30;;;14.46;56.04;95085.53;4993643;28;20565;-57
2023/03/24 06:58:33;;;;;;;47.77;19.80;;;14.20;95.70;;;14.75;55.89;95085.19;4987653;28;20530;-57
2023/03/24 07:01:02;;;;;;;41.00;20.50;;;14.50;95.50;;;15.03;55.43;95085.75;5001397;28;20477;-55
2023/03/24 07:03:30;;;;;;;39.83;21.40;;;14.70;95.00;;;15.30;54.89;95080.34;4991820;28;20485;-56
2023/03/24 07:05:59;;;;;;;32.23;20.40;;;15.00;94.40;;;15.54;53.99;95095.44;4988902;28;20455;-52
2023/03/24 07:08:26;;;;;;;40.73;20.20;;;15.20;93.70;;;15.79;53.36;95096.31;4997240;28;20481;-55
2023/03/24 07:10:53;;;;;;;33.43;18.50;;;15.50;93.10;;;16.04;52.69;95094.47;4996723;28;20474;-57
2023/03/24 07:13:20;;;;;;;27.53;20.27;;;15.70;92.30;;;16.25;50.73;95095.75;4990465;28;20905;-54
2023/03/24 07:15:48;;;;;;;31.83;19.63;;;16.00;90.40;;;16.45;51.58;95104.16;4997683;28;20499;-56
2023/03/24 07:18:18;;;;;;;24.90;17.60;;;16.20;90.90;;;16.72;51.32;95096.78;4997248;28;20539;-56
2023/03/24 07:20:45;;;;;;;33.67;19.03;;;16.40;90.30;;;17.01;50.48;95090.88;4992335;28;20463;-56
2023/03/24 07:23:12;;;;;;;29.63;18.00;;;16.60;88.90;;;17.34;50.43;95093.31;4993704;28;21006;-56
2023/03/24 07:25:40;;;;;;;32.20;17.93;;;17.00;88.50;;;17.66;50.00;95099.41;4998435;28;20446;-56
2023/03/24 07:28:08;;;;;;;28.90;18.20;;;17.30;87.50;;;18.04;49.03;95102.13;4992838;28;20896;-55
2023/03/24 07:30:35;;;;;;;28.77;18.87;;;17.60;86.60;;;18.41;48.16;95101.25;4989890;28;20542;-54
2023/03/24 07:33:03;;;;;;;25.90;17.20;;;18.00;84.20;;;18.71;48.60;95093.25;4999068;28;20557;-55
2023/03/24 07:35:31;;;;;;;23.40;17.23;;;18.30;84.20;;;19.06;48.08;95090.88;4993700;28;20462;-55
2023/03/24 07:37:59;;;;;;;27.40;15.37;;;18.60;82.90;;;19.48;47.10;95088.47;4978575;28;20900;-56
2023/03/24 07:40:26;;;;;;;21.13;14.80;;;19.00;80.90;;;19.82;46.90;95102.97;4995835;28;20502;-56
2023/03/24 07:42:53;;;;;;;27.63;18.00;;;19.40;79.20;;;20.11;45.12;95093.13;4995898;28;20564;-56
2023/03/24 07:45:20;;;;;;;27.07;18.10;;;19.70;75.60;;;20.39;45.30;95091.31;4988012;28;20547;-56
2023/03/24 07:47:48;;;;;;;26.03;17.87;;;20.00;75.00;;;20.70;44.86;95086.59;4995917;28;20479;-56
2023/03/24 07:50:15;;;;;;;40.10;19.60;;;20.30;73.30;;;21.05;44.81;95091.88;4995702;28;20482;-56
2023/03/24 07:52:47;;;;;;;527.37;67.70;;;20.70;73.30;;;21.40;44.08;95087.28;4991995;28;20498;-56
2023/03/24 07:55:15;;;;;;;1476.67;208.63;;;21.10;71.20;;;21.73;43.55;95086.53;4993492;28;20507;-54
2023/03/24 07:57:42;;;;;;;624.90;78.20;;;21.50;69.90;;;22.14;43.43;95080.19;4994369;28;20561;-57
2023/03/24 08:00:14;;;;;;;994.93;138.27;;;22.00;69.60;;;22.46;42.66;95085.72;4989455;28;21034;-56
2023/03/24 08:02:42;;;;;;;353.63;45.77;;;22.40;66.30;;;22.69;42.18;95079.91;4985831;28;20890;-55
2023/03/24 08:05:12;;;;;;;1008.23;131.30;;;22.70;65.00;;;22.95;41.31;95072.84;4992659;28;20969;-54
2023/03/24 08:07:41;;;;;;;1522.30;202.10;;;22.90;63.00;;;23.32;41.58;95066.94;4989378;28;20466;-56
2023/03/24 08:10:11;;;;;;;1099.90;143.20;;;23.20;63.10;;;23.75;40.77;95067.09;4984442;28;20545;-55
2023/03/24 08:12:38;;;;;;;90.63;22.07;;;23.60;62.20;;;24.19;40.07;95067.19;4994905;28;20469;-55
2023/03/24 08:15:07;;;;;;;505.67;47.30;;;24.00;60.80;;;24.48;38.54;95065.69;4992532;28;20450;-54
2023/03/24 08:17:35;;;;;;;154.23;25.00;;;24.30;58.80;;;24.76;38.56;95060.88;4986852;28;20470;-56
2023/03/24 08:20:11;;;;;;;234.97;31.27;;;24.60;57.30;;;25.00;38.04;95054.59;4999747;28;20928;-56
2023/03/24 08:22:39;;;;;;;278.23;35.77;;;24.80;56.10;;;25.21;37.67;95053.28;5000075;28;20480;-55
2023/03/24 08:25:07;;;;;;;242.80;30.50;;;25.10;56.40;;;25.46;36.94;95055.06;4994903;28;20801;-55
2023/03/24 08:27:36;;;;;;;100.80;20.70;;;25.40;54.60;;;25.59;36.51;95054.03;4995627;28;20477;-57
2023/03/24 08:30:04;;;;;;;75.37;18.90;;;25.60;53.60;;;25.69;36.10;95048.13;5001670;28;20488;-56
2023/03/24 08:32:31;;;;;;;45.63;15.77;;;25.70;52.70;;;25.82;35.93;95047.91;4994321;28;20561;-56
2023/03/24 08:34:59;;;;;;;111.37;19.73;;;25.90;52.70;;;25.84;36.00;95051.22;4996965;28;20483;-56
2023/03/24 08:37:26;;;;;;;345.00;32.13;;;25.90;52.40;;;25.71;34.96;95044.13;5004325;28;20472;-55
2023/03/24 08:39:57;;;;;;;295.37;30.23;;;25.90;50.60;;;25.63;34.73;95041.78;4998817;28;20503;-56
2023/03/24 08:42:25;;;;;;;166.07;27.40;;;25.70;50.40;;;25.66;34.03;95029.72;4997198;28;20461;-54
2023/03/24 08:44:53;;;;;;;397.83;47.13;;;25.70;49.30;;;25.66;34.86;95038.63;5007157;28;20974;-55
2023/03/24 08:47:20;;;;;;;237.27;32.30;;;25.60;50.50;;;25.70;34.14;95028.19;5002315;28;20472;-55
2023/03/24 08:49:48;;;;;;;252.33;30.07;;;25.60;50.00;;;25.72;34.03;95032.31;4988082;28;20465;-55
2023/03/24 08:52:16;;;;;;;222.00;28.30;;;25.60;49.60;;;25.80;32.76;95033.03;5003495;28;20477;-55
2023/03/24 08:54:44;;;;;;;65.93;20.00;;;25.60;48.50;;;25.68;33.49;95022.22;5002693;28;20522;-56
2023/03/24 08:57:11;;;;;;;417.00;41.60;;;25.50;48.30;;;25.53;33.69;95020.78;4995243;28;20476;-56
2023/03/24 08:59:38;;;;;;;316.43;32.63;;;25.30;48.80;;;25.52;34.07;95011.06;5000918;28;20488;-56
2023/03/24 09:02:07;;;;;;;251.80;32.63;;;25.20;49.20;;;25.57;33.78;95008.47;5000443;28;20472;-57
2023/03/24 09:04:34;;;;;;;230.50;26.97;;;25.20;49.30;;;25.56;34.06;95006.03;4993989;28;20457;-57
2023/03/24 09:07:02;;;;;;;345.27;34.53;;;25.20;48.80;;;25.44;33.24;95005.16;4985280;28;20477;-58
2023/03/24 09:09:30;;;;;;;750.00;75.87;;;25.10;48.50;;;25.39;33.19;95003.16;4998211;28;20529;-56
2023/03/24 09:11:57;;;;;;;354.70;32.70;;;25.10;48.70;;;25.40;33.44;94997.53;4998472;28;20485;-58
2023/03/24 09:14:24;;;;;;;266.13;29.17;;;25.00;48.70;;;25.45;33.23;95002.25;4990080;28;20458;-56
2023/03/24 09:16:52;;;;;;;121.47;22.07;;;25.10;47.80;;;25.54;33.65;94997.34;5000264;28;20950;-60
2023/03/24 09:19:20;;;;;;;186.63;24.83;;;25.10;48.50;;;25.68;33.52;94997.97;5000398;28;20489;-55
2023/03/24 09:21:48;;;;;;;190.30;24.80;;;25.20;49.10;;;25.71;32.62;94994.81;4993711;28;20488;-58
2023/03/24 09:24:15;;;;;;;105.13;20.50;;;25.30;48.00;;;25.72;32.82;94991.91;5001328;28;20449;-53
2023/03/24 09:26:42;;;;;;;44.00;19.13;;;25.30;47.70;;;25.68;32.49;94990.69;4997497;28;20479;-56
2023/03/24 09:29:10;;;;;;;145.00;23.00;;;25.30;46.90;;;25.54;32.63;94986.59;4992317;28;20446;-55
2023/03/24 09:31:38;;;;;;;103.17;20.33;;;25.20;47.80;;;25.58;32.96;94977.00;4997093;28;20554;-54
2023/03/24 09:34:05;;;;;;;67.90;17.83;;;25.20;47.80;;;25.68;32.89;94977.22;4993746;28;20903;-54
2023/03/24 09:36:34;;;;;;;133.50;23.57;;;25.30;47.60;;;25.76;32.99;94974.22;4983731;28;20490;-56
2023/03/24 09:39:01;;;;;;;692.13;63.67;;;25.40;47.90;;;25.81;33.13;94975.38;4989651;28;20454;-56
2023/03/24 09:41:30;;;;;;;601.30;49.67;;;25.40;47.90;;;25.86;32.62;94962.03;5001348;28;20488;-55
2023/03/24 09:43:59;;;;;;;76.17;19.47;;;25.40;47.60;;;25.90;32.10;94963.19;4995522;28;20466;-57
2023/03/24 09:46:30;;;;;;;71.90;18.00;;;25.50;46.60;;;25.80;32.07;94965.69;4990371;28;20464;-56
2023/03/24 09:48:57;;;;;;;125.27;20.70;;;25.40;46.50;;;25.60;32.22;94956.03;5000217;28;20988;-56
2023/03/24 09:51:26;;;;;;;393.20;34.33;;;25.30;46.60;;;25.51;32.67;94960.09;4997392;28;20537;-56
2023/03/24 09:53:59;;;;;;;346.50;34.37;;;25.20;47.10;;;25.58;32.36;94952.75;4989003;28;20564;-56
2023/03/24 09:56:28;;;;;;;505.57;46.50;;;25.10;47.10;;;25.66;32.38;94947.03;5000844;28;20971;-57
2023/03/24 09:59:03;;;;;;;565.13;56.67;;;25.20;46.70;;;25.68;31.32;94941.41;4989120;28;20991;-55
2023/03/24 10:01:30;;;;;;;438.57;38.80;;;25.30;45.80;;;25.58;31.97;94940.09;4986162;28;20840;-58
2023/03/24 10:03:59;;;;;;;292.47;30.73;;;25.20;45.90;;;25.39;32.09;94935.84;5000769;28;20469;-56
2023/03/24 10:06:27;;;;;;;278.03;26.63;;;25.10;45.80;;;25.28;31.76;94937.41;4996375;28;20463;-57
2023/03/24 10:09:07;;;;;;;517.10;46.73;;;25.00;45.20;;;25.15;31.80;94935.75;4993629;28;21044;-57
2023/03/24 10:11:38;;;;;;;488.47;42.63;;;24.80;45.90;;;25.17;32.63;94930.94;4991289;28;20446;-57
2023/03/24 10:14:14;;;;;;;388.83;33.70;;;24.80;47.00;;;25.26;31.56;94926.06;5000725;28;20578;-59
2023/03/24 10:16:45;;;;;;;503.73;43.50;;;24.80;45.50;;;25.32;32.45;94924.38;4990971;28;20453;-56
2023/03/24 10:19:22;;;;;;;456.87;35.43;;;24.90;46.80;;;25.47;32.06;94921.22;4995543;28;21038;-59
2023/03/24 10:21:56;;;;;;;302.93;27.80;;;25.00;46.90;;;25.60;32.01;94931.78;4994338;28;21252;-55
2023/03/24 10:24:27;;;;;;;219.40;22.20;;;25.10;46.50;;;25.66;31.34;94916.56;4994427;28;20476;-55
2023/03/24 10:27:00;;;;;;;86.43;16.47;;;25.20;45.80;;;25.57;31.15;94919.59;4993639;28;20469;-56